Impacts TAF Board INFO
FOR SITUATIONAL AWARENESS. NOT TO BE USED FOR FLIGHT PLANNING PURPOSES.
IDs:

KLAX - Los Angeles Intl, CA, US

Issued at 0307 UTC 13 Dec 2017
Updated at 0326 UTC 13 Dec 2017
Potential Impact None Slight Moderate High
Time<<14/04Z 14/05Z 14/06Z 14/07Z 14/08Z 14/09Z 14/10Z 14/11Z 14/12Z 14/13Z 14/14Z 14/15Z 14/16Z
Type PRVL PRVL
VIS >6 >6
CIG -- --
Cover SKC SKC
FltCat VFR VFR
WX -- --
WDir 270 270
WSpd 8 8
WGst -- --

Raw TAF
KLAX 130307Z 1303/1406 VRB03KT 6SM FU SCT045 SCT250
  FM130800 07004KT P6SM SCT250
  FM132000 27008KT P6SM SKC


METAR Board
Radar Display
Forecast Discussion

FOR SITUATIONAL AWARENESS. NOT TO BE USED FOR FLIGHT PLANNING PURPOSES.